createdAt,value
2023-01-29T00:01:13.922Z,102329.56
2023-01-29T00:03:43.838Z,102345.09
2023-01-29T00:06:13.668Z,102357.72
2023-01-29T00:08:46.079Z,102350.56
2023-01-29T00:11:16.697Z,102316.09
2023-01-29T00:13:47.417Z,102332.72
2023-01-29T00:16:17.105Z,102282.50
2023-01-29T00:18:47.171Z,102336.16
2023-01-29T00:21:19.028Z,102329.22
2023-01-29T00:23:52.565Z,102335.25
2023-01-29T00:26:22.233Z,102311.59
2023-01-29T00:28:52.065Z,102321.94
2023-01-29T00:31:24.058Z,102305.47
2023-01-29T00:33:54.060Z,102330.19
2023-01-29T00:36:24.935Z,102319.13
2023-01-29T00:39:03.631Z,102328.22
2023-01-29T00:41:47.523Z,102330.00
2023-01-29T00:44:31.173Z,102333.88
2023-01-29T00:47:01.137Z,102321.78
2023-01-29T00:49:30.839Z,102330.00
2023-01-29T00:52:13.952Z,102338.81
2023-01-29T00:54:46.200Z,102335.78
2023-01-29T00:57:15.971Z,102339.56
2023-01-29T00:59:45.628Z,102325.22
2023-01-29T01:02:30.911Z,102318.69
2023-01-29T01:05:02.465Z,102326.50
2023-01-29T01:07:33.407Z,102319.66
2023-01-29T01:10:18.470Z,102310.88
2023-01-29T01:12:48.747Z,102301.81
2023-01-29T01:15:18.481Z,102279.19
2023-01-29T01:17:48.921Z,102291.66
2023-01-29T01:20:20.090Z,102289.78
2023-01-29T01:22:49.828Z,102292.78
2023-01-29T01:25:22.120Z,102274.69
2023-01-29T01:27:55.226Z,102280.72
2023-01-29T01:30:26.700Z,102293.78
2023-01-29T01:32:57.769Z,102263.84
2023-01-29T01:35:27.513Z,102280.97
2023-01-29T01:37:57.267Z,102275.53
2023-01-29T01:40:30.042Z,102270.66
2023-01-29T01:43:01.361Z,102280.19
2023-01-29T01:45:34.366Z,102258.19
2023-01-29T01:48:07.176Z,102258.69
2023-01-29T01:50:42.748Z,102285.78
2023-01-29T01:53:15.690Z,102258.63
2023-01-29T01:55:53.276Z,102262.38
2023-01-29T01:58:26.955Z,102241.00
2023-01-29T02:00:57.583Z,102275.69
2023-01-29T02:03:43.395Z,102271.03
2023-01-29T02:06:26.814Z,102272.56
2023-01-29T02:09:14.418Z,102291.28
2023-01-29T02:11:46.719Z,102255.56
2023-01-29T02:14:17.021Z,102292.03
2023-01-29T02:16:46.897Z,102300.59
2023-01-29T02:19:26.992Z,102286.13
2023-01-29T02:22:32.493Z,102284.13
2023-01-29T02:25:09.835Z,102255.22
2023-01-29T02:28:05.742Z,102292.78
2023-01-29T02:30:43.034Z,102319.44
2023-01-29T02:33:22.339Z,102320.72
2023-01-29T02:36:00.655Z,102297.34
2023-01-29T02:38:39.137Z,102312.94
2023-01-29T02:41:16.246Z,102324.25
2023-01-29T02:43:50.405Z,102309.19
2023-01-29T02:46:31.447Z,102317.22
2023-01-29T02:49:11.298Z,102294.84
2023-01-29T02:51:49.739Z,102324.91
2023-01-29T02:54:25.786Z,102323.00
2023-01-29T02:57:01.317Z,102314.69
2023-01-29T02:59:39.861Z,102322.25
2023-01-29T03:02:16.508Z,102324.75
2023-01-29T03:04:51.999Z,102321.38
2023-01-29T03:07:38.618Z,102277.97
2023-01-29T03:10:16.086Z,102290.81
2023-01-29T03:12:49.207Z,102293.72
2023-01-29T03:15:26.689Z,102301.25
2023-01-29T03:18:30.617Z,102275.31
2023-01-29T03:21:28.832Z,102279.59
2023-01-29T03:24:15.317Z,102212.63
2023-01-29T03:26:59.538Z,102281.00
2023-01-29T03:29:46.989Z,102287.91
2023-01-29T03:32:18.946Z,102276.34
2023-01-29T03:34:55.124Z,102276.34
2023-01-29T03:37:29.531Z,102252.97
2023-01-29T03:39:59.501Z,102264.91
2023-01-29T03:42:37.506Z,102229.19
2023-01-29T03:45:16.613Z,102256.84
2023-01-29T03:47:54.347Z,102243.28
2023-01-29T03:50:37.081Z,102247.06
2023-01-29T03:53:13.020Z,102239.75
2023-01-29T03:55:47.958Z,102256.97
2023-01-29T03:58:27.970Z,102253.47
2023-01-29T04:01:01.546Z,102248.81
2023-01-29T04:03:36.877Z,102236.38
2023-01-29T04:06:19.375Z,102227.69
2023-01-29T04:09:10.168Z,102217.88
2023-01-29T04:11:47.818Z,102229.47
2023-01-29T04:14:17.994Z,102212.25
2023-01-29T04:16:53.833Z,102202.81
2023-01-29T04:19:37.480Z,102183.44
2023-01-29T04:22:14.867Z,102200.78
2023-01-29T04:24:45.519Z,102173.41
2023-01-29T04:27:28.318Z,102175.66
2023-01-29T04:30:12.288Z,102153.03
2023-01-29T04:33:00.168Z,102164.09
2023-01-29T04:35:36.319Z,102169.63
2023-01-29T04:38:19.579Z,102131.19
2023-01-29T04:40:55.969Z,102174.25
2023-01-29T04:43:31.015Z,102170.38
2023-01-29T04:46:14.489Z,102162.94
2023-01-29T04:48:54.901Z,102177.53
2023-01-29T04:51:30.420Z,102142.44
2023-01-29T04:54:11.076Z,102158.91
2023-01-29T04:56:45.735Z,102159.56
2023-01-29T04:59:20.831Z,102155.13
2023-01-29T05:01:51.627Z,102143.59
2023-01-29T05:04:23.283Z,102153.25
2023-01-29T05:06:53.825Z,102147.34
2023-01-29T05:09:27.988Z,102135.16
2023-01-29T05:11:58.523Z,102140.94
2023-01-29T05:14:30.812Z,102156.75
2023-01-29T05:17:06.666Z,102165.06
2023-01-29T05:19:36.424Z,102163.59
2023-01-29T05:22:08.101Z,102170.88
2023-01-29T05:24:40.445Z,102163.34
2023-01-29T05:27:27.569Z,102169.84
2023-01-29T05:29:58.000Z,102158.41
2023-01-29T05:32:27.674Z,102160.53
2023-01-29T05:34:57.293Z,102119.34
2023-01-29T05:37:26.966Z,102144.06
2023-01-29T05:39:59.199Z,102171.63
2023-01-29T05:42:28.880Z,102165.56
2023-01-29T05:44:58.629Z,102164.81
2023-01-29T05:47:28.283Z,102164.81
2023-01-29T05:49:57.949Z,102173.13
2023-01-29T05:52:27.678Z,102177.19
2023-01-29T05:54:59.871Z,102163.75
2023-01-29T05:57:29.544Z,102162.34
2023-01-29T05:59:59.225Z,102184.69
2023-01-29T06:02:28.885Z,102180.31
2023-01-29T06:04:58.504Z,102169.63
2023-01-29T06:07:28.281Z,102174.66
2023-01-29T06:10:00.550Z,102167.84
2023-01-29T06:12:30.626Z,102177.19
2023-01-29T06:15:00.251Z,102174.16
2023-01-29T06:17:29.912Z,102193.25
2023-01-29T06:19:59.859Z,102166.88
2023-01-29T06:22:29.539Z,102190.13
2023-01-29T06:25:01.759Z,102194.00
2023-01-29T06:27:31.418Z,102173.66
2023-01-29T06:30:01.103Z,102178.16
2023-01-29T06:32:31.043Z,102180.69
2023-01-29T06:35:00.706Z,102179.06
2023-01-29T06:37:30.412Z,102154.94
2023-01-29T06:40:02.605Z,102184.44
2023-01-29T06:42:32.451Z,102168.34
2023-01-29T06:45:02.175Z,102167.63
2023-01-29T06:47:31.910Z,102142.25
2023-01-29T06:50:01.575Z,102142.13
2023-01-29T06:52:31.235Z,102179.44
2023-01-29T06:55:03.450Z,102180.31
2023-01-29T06:57:33.098Z,102157.06
2023-01-29T07:00:02.761Z,102210.47
2023-01-29T07:02:32.517Z,102212.72
2023-01-29T07:05:02.216Z,102217.13
2023-01-29T07:07:31.856Z,102202.56
2023-01-29T07:10:04.107Z,102211.72
2023-01-29T07:12:33.737Z,101961.63
2023-01-29T07:15:03.741Z,102199.78
2023-01-29T07:17:33.395Z,102186.31
2023-01-29T07:20:03.002Z,102186.59
2023-01-29T07:22:32.742Z,102193.75
2023-01-29T07:25:04.965Z,102179.66
2023-01-29T07:27:34.607Z,102203.06
2023-01-29T07:30:04.311Z,102196.88
2023-01-29T07:32:33.983Z,102178.41
2023-01-29T07:35:03.614Z,102147.28
2023-01-29T07:37:33.265Z,102150.53
2023-01-29T07:40:10.538Z,102172.13
2023-01-29T07:42:42.292Z,102185.72
2023-01-29T07:45:13.661Z,102171.00
2023-01-29T07:47:43.337Z,102165.34
2023-01-29T07:50:14.436Z,102136.34
2023-01-29T07:52:44.301Z,102128.81
2023-01-29T07:55:16.586Z,102107.31
2023-01-29T07:57:46.876Z,102129.31
2023-01-29T08:00:18.209Z,102117.63
2023-01-29T08:02:48.097Z,102124.00
2023-01-29T08:05:17.817Z,101960.72
2023-01-29T08:07:57.192Z,102118.72
2023-01-29T08:10:37.015Z,102112.59
2023-01-29T08:13:08.035Z,102100.13
2023-01-29T08:15:39.202Z,102101.78
2023-01-29T08:18:09.849Z,102109.59
2023-01-29T08:20:39.499Z,102121.38
2023-01-29T08:23:11.152Z,102124.75
2023-01-29T08:25:43.993Z,102108.06
2023-01-29T08:28:14.507Z,102110.69
2023-01-29T08:30:44.744Z,102119.59
2023-01-29T08:33:14.601Z,102100.00
2023-01-29T08:35:45.162Z,102122.34
2023-01-29T08:38:14.809Z,102118.09
2023-01-29T08:40:47.185Z,102123.13
2023-01-29T08:43:17.308Z,102118.75
2023-01-29T08:45:47.042Z,102124.63
2023-01-29T08:48:16.732Z,102098.00
2023-01-29T08:50:46.426Z,102127.38
2023-01-29T08:53:16.090Z,102122.50
2023-01-29T08:55:48.993Z,102123.34
2023-01-29T08:58:18.694Z,102093.72
2023-01-29T09:00:48.350Z,102094.09
2023-01-29T09:03:18.360Z,102106.38
2023-01-29T09:05:48.261Z,102099.09
2023-01-29T09:08:18.181Z,102086.66
2023-01-29T09:10:50.438Z,102083.59
2023-01-29T09:13:20.117Z,102085.78
2023-01-29T09:15:49.700Z,102107.75
2023-01-29T09:18:22.090Z,102108.25
2023-01-29T09:20:51.720Z,102124.19
2023-01-29T09:23:21.409Z,102099.84
2023-01-29T09:25:53.661Z,102092.69
2023-01-29T09:28:23.314Z,102112.50
2023-01-29T09:30:53.279Z,102057.25
2023-01-29T09:33:24.776Z,102073.91
2023-01-29T09:35:54.439Z,102093.38
2023-01-29T09:38:24.121Z,102080.19
2023-01-29T09:41:04.637Z,102083.88
2023-01-29T09:43:45.690Z,102085.03
2023-01-29T09:46:22.149Z,102083.19
2023-01-29T09:49:06.890Z,102087.72
2023-01-29T09:51:42.678Z,102064.59
2023-01-29T09:54:20.539Z,102062.25
2023-01-29T09:56:55.452Z,102072.53
2023-01-29T09:59:26.791Z,102067.59
2023-01-29T10:02:05.721Z,102054.19
2023-01-29T10:05:04.846Z,102040.97
2023-01-29T10:08:03.884Z,102043.72
2023-01-29T10:10:49.212Z,102045.06
2023-01-29T10:13:30.782Z,102004.75
2023-01-29T10:16:28.551Z,102053.13
2023-01-29T10:19:14.159Z,102040.31
2023-01-29T10:22:12.952Z,102057.81
2023-01-29T10:24:50.641Z,102064.78
2023-01-29T10:27:22.406Z,102063.34
2023-01-29T10:29:57.932Z,102050.97
2023-01-29T10:32:29.647Z,102063.22
2023-01-29T10:35:03.049Z,102060.84
2023-01-29T10:37:40.544Z,101995.59
2023-01-29T10:40:22.763Z,102044.00
2023-01-29T10:43:01.788Z,102053.72
2023-01-29T10:45:42.914Z,102044.19
2023-01-29T10:48:43.806Z,102043.38
2023-01-29T10:51:24.178Z,102040.19
2023-01-29T10:54:06.645Z,102036.50
2023-01-29T10:56:47.831Z,102034.00
2023-01-29T10:59:33.013Z,102021.47
2023-01-29T11:02:05.856Z,101993.16
2023-01-29T11:04:36.859Z,102014.06
2023-01-29T11:07:07.408Z,102007.94
2023-01-29T11:09:41.918Z,101999.28
2023-01-29T11:12:16.874Z,101981.06
2023-01-29T11:14:55.225Z,101976.66
2023-01-29T11:17:28.823Z,101937.13
2023-01-29T11:19:58.642Z,101993.34
2023-01-29T11:22:30.404Z,102001.28
2023-01-29T11:25:19.225Z,102005.03
2023-01-29T11:27:50.917Z,101964.66
2023-01-29T11:30:26.190Z,101979.03
2023-01-29T11:33:08.514Z,101986.06
2023-01-29T11:35:39.254Z,101981.81
2023-01-29T11:38:21.217Z,101988.41
2023-01-29T11:40:50.937Z,101962.47
2023-01-29T11:43:32.417Z,101961.06
2023-01-29T11:46:05.449Z,101899.16
2023-01-29T11:48:44.512Z,101925.59
2023-01-29T11:51:25.011Z,101891.94
2023-01-29T11:53:58.573Z,101940.63
2023-01-29T11:56:32.351Z,101929.13
2023-01-29T11:59:04.598Z,101939.09
2023-01-29T12:01:37.648Z,101913.69
2023-01-29T12:04:21.518Z,101927.56
2023-01-29T12:06:53.514Z,101920.88
2023-01-29T12:09:28.327Z,101923.72
2023-01-29T12:11:58.685Z,101905.13
2023-01-29T12:14:33.653Z,101915.63
2023-01-29T12:17:07.048Z,101901.81
2023-01-29T12:19:45.433Z,101873.13
2023-01-29T12:22:20.575Z,101890.84
2023-01-29T12:24:55.617Z,101869.31
2023-01-29T12:27:32.208Z,101870.53
2023-01-29T12:30:10.204Z,101866.47
2023-01-29T12:32:51.038Z,101853.44
2023-01-29T12:35:29.258Z,101867.47
2023-01-29T12:38:03.342Z,101842.28
2023-01-29T12:40:37.643Z,101868.25
2023-01-29T12:43:15.161Z,101836.81
2023-01-29T12:45:46.824Z,101853.03
2023-01-29T12:48:21.973Z,101866.50
2023-01-29T12:50:56.018Z,101865.72
2023-01-29T12:53:31.685Z,101854.66
2023-01-29T12:56:05.683Z,101852.22
2023-01-29T12:58:40.848Z,101843.16
2023-01-29T13:01:16.985Z,101878.41
2023-01-29T13:03:54.868Z,101853.66
2023-01-29T13:06:31.367Z,101830.97
2023-01-29T13:09:04.585Z,101840.38
2023-01-29T13:11:40.815Z,101840.50
2023-01-29T13:14:21.519Z,101839.75
2023-01-29T13:16:55.439Z,101811.59
2023-01-29T13:19:29.895Z,101818.91
2023-01-29T13:22:05.510Z,101821.66
2023-01-29T13:24:44.367Z,101794.69
2023-01-29T13:27:25.083Z,101793.34
2023-01-29T13:29:55.562Z,101796.19
2023-01-29T13:32:28.658Z,101809.31
2023-01-29T13:35:00.661Z,101779.91
2023-01-29T13:37:37.291Z,101792.00
2023-01-29T13:40:10.383Z,101796.22
2023-01-29T13:42:45.574Z,101801.06
2023-01-29T13:45:23.232Z,101780.31
2023-01-29T13:47:54.805Z,101793.25
2023-01-29T13:50:32.745Z,101757.94
2023-01-29T13:53:08.330Z,101790.06
2023-01-29T13:55:40.107Z,101776.56
2023-01-29T13:58:11.772Z,101772.41
2023-01-29T14:01:01.120Z,101784.84
2023-01-29T14:04:04.496Z,101776.50
2023-01-29T14:06:50.357Z,101774.56
2023-01-29T14:09:49.724Z,101776.50
2023-01-29T14:12:41.861Z,101771.38
2023-01-29T14:15:33.668Z,101760.66
2023-01-29T14:18:08.263Z,101756.75
2023-01-29T14:20:46.024Z,101757.94
2023-01-29T14:23:36.884Z,101757.94
2023-01-29T14:26:09.077Z,101738.88
2023-01-29T14:28:43.077Z,101719.44
2023-01-29T14:31:13.959Z,101733.34
2023-01-29T14:33:44.800Z,101716.41
2023-01-29T14:36:17.489Z,101677.66
2023-01-29T14:38:52.664Z,101719.00
2023-01-29T14:41:29.590Z,101674.38
2023-01-29T14:44:38.285Z,101718.97
2023-01-29T14:47:21.213Z,101709.59
2023-01-29T14:49:55.743Z,101708.94
2023-01-29T14:52:30.922Z,101724.56
2023-01-29T14:55:05.589Z,101726.94
2023-01-29T14:57:36.368Z,101673.38
2023-01-29T15:00:09.654Z,101686.41
2023-01-29T15:02:45.799Z,101555.66
2023-01-29T15:05:22.273Z,101646.72
2023-01-29T15:07:58.255Z,101686.22
2023-01-29T15:10:37.893Z,101731.03
2023-01-29T15:13:16.144Z,101650.88
2023-01-29T15:15:50.262Z,101696.59
2023-01-29T15:18:37.529Z,101721.63
2023-01-29T15:21:13.909Z,101698.22
2023-01-29T15:23:44.331Z,101664.56
2023-01-29T15:26:16.362Z,101701.28
2023-01-29T15:28:54.836Z,101696.13
2023-01-29T15:31:29.758Z,101674.81
2023-01-29T15:34:07.731Z,101585.84
2023-01-29T15:36:40.874Z,101675.38
2023-01-29T15:39:18.880Z,101675.59
2023-01-29T15:41:49.119Z,101657.97
2023-01-29T15:44:21.580Z,101692.88
2023-01-29T15:46:54.306Z,101688.03
2023-01-29T15:49:32.964Z,101597.94
2023-01-29T15:52:06.195Z,101676.88
2023-01-29T15:54:37.521Z,101660.59
2023-01-29T15:57:08.637Z,101663.63
2023-01-29T15:59:45.582Z,101542.78
2023-01-29T16:02:23.953Z,101673.66
2023-01-29T16:04:56.595Z,101659.69
2023-01-29T16:07:26.731Z,101663.97
2023-01-29T16:09:58.042Z,101666.38
2023-01-29T16:12:28.130Z,101627.88
2023-01-29T16:14:58.748Z,101636.31
2023-01-29T16:17:35.299Z,101654.34
2023-01-29T16:20:10.546Z,101641.31
2023-01-29T16:22:40.984Z,101648.31
2023-01-29T16:25:17.624Z,101529.44
2023-01-29T16:27:47.670Z,101579.28
2023-01-29T16:30:19.197Z,101602.41
2023-01-29T16:32:49.039Z,101603.75
2023-01-29T16:35:21.427Z,101503.34
2023-01-29T16:37:53.422Z,101635.63
2023-01-29T16:40:32.572Z,101530.75
2023-01-29T16:43:46.896Z,101611.16
2023-01-29T16:46:22.594Z,101478.88
2023-01-29T16:48:53.496Z,101538.94
2023-01-29T16:51:34.369Z,101523.41
2023-01-29T16:54:11.035Z,101571.59
2023-01-29T16:56:42.055Z,101589.50
2023-01-29T16:59:21.116Z,101560.97
2023-01-29T17:01:52.131Z,101542.31
2023-01-29T17:04:22.585Z,101484.88
2023-01-29T17:06:59.320Z,101521.56
2023-01-29T17:09:33.819Z,101570.75
2023-01-29T17:12:06.501Z,101475.34
2023-01-29T17:14:42.027Z,101508.97
2023-01-29T17:17:19.006Z,101546.31
2023-01-29T17:19:48.735Z,101541.94
2023-01-29T17:22:21.033Z,101510.34
2023-01-29T17:24:51.882Z,101558.91
2023-01-29T17:27:23.163Z,101509.94
2023-01-29T17:29:53.681Z,101492.50
2023-01-29T17:32:23.529Z,101507.97
2023-01-29T17:34:54.051Z,101543.50
2023-01-29T17:37:26.279Z,101540.38
2023-01-29T17:39:56.402Z,101518.09
2023-01-29T17:42:26.280Z,101533.03
2023-01-29T17:44:56.010Z,101552.00
2023-01-29T17:47:25.617Z,101525.53
2023-01-29T17:49:55.322Z,101552.22
2023-01-29T17:52:27.579Z,101543.56
2023-01-29T17:54:57.203Z,101535.09
2023-01-29T17:57:26.806Z,101548.94
2023-01-29T17:59:56.725Z,101522.59
2023-01-29T18:02:29.126Z,101531.13
2023-01-29T18:04:59.639Z,101513.84
2023-01-29T18:07:31.878Z,101528.00
2023-01-29T18:10:01.572Z,101531.66
2023-01-29T18:12:31.379Z,101516.03
2023-01-29T18:15:01.020Z,101528.44
2023-01-29T18:17:31.134Z,101524.81
2023-01-29T18:20:00.820Z,101529.16
2023-01-29T18:22:33.082Z,101536.72
2023-01-29T18:25:02.800Z,101503.97
2023-01-29T18:27:32.453Z,101501.34
2023-01-29T18:30:02.073Z,101512.88
2023-01-29T18:32:31.741Z,101505.59
2023-01-29T18:35:01.590Z,101502.16
2023-01-29T18:37:33.861Z,101484.38
2023-01-29T18:40:03.513Z,101442.28
2023-01-29T18:42:35.997Z,101458.25
2023-01-29T18:45:06.392Z,101444.03
2023-01-29T18:47:36.349Z,101453.56
2023-01-29T18:50:06.094Z,101408.59
2023-01-29T18:52:38.374Z,101431.59
2023-01-29T18:55:09.826Z,101436.94
2023-01-29T18:58:26.503Z,101435.91
2023-01-29T19:00:30.092Z,101420.63
2023-01-29T19:02:59.719Z,101419.16
2023-01-29T19:05:29.425Z,101403.78
2023-01-29T19:08:01.966Z,101411.81
2023-01-29T19:10:31.672Z,101409.41
2023-01-29T19:13:01.388Z,101432.47
2023-01-29T19:15:31.362Z,101418.88
2023-01-29T19:18:01.201Z,101417.31
2023-01-29T19:20:31.009Z,101405.06
2023-01-29T19:23:03.261Z,101392.06
2023-01-29T19:25:32.960Z,101391.59
2023-01-29T19:28:02.987Z,101366.19
2023-01-29T19:30:32.808Z,101366.41
2023-01-29T19:33:02.641Z,101374.94
2023-01-29T19:35:33.524Z,101382.31
2023-01-29T19:38:06.919Z,101354.22
2023-01-29T19:40:38.739Z,101358.31
2023-01-29T19:43:08.849Z,101340.97
2023-01-29T19:45:50.127Z,101353.22
2023-01-29T19:48:21.792Z,101342.81
2023-01-29T19:50:55.671Z,101331.75
2023-01-29T19:53:30.248Z,101316.31
2023-01-29T19:56:01.492Z,101315.69
2023-01-29T19:58:32.129Z,101302.06
2023-01-29T20:01:04.160Z,101279.88
2023-01-29T20:03:34.256Z,101277.94
2023-01-29T20:06:08.871Z,101290.09
2023-01-29T20:08:41.140Z,101291.91
2023-01-29T20:11:11.130Z,101284.16
2023-01-29T20:13:40.776Z,101261.44
2023-01-29T20:16:11.446Z,101275.75
2023-01-29T20:18:41.123Z,101279.25
2023-01-29T20:21:13.165Z,101274.97
2023-01-29T20:23:46.119Z,101251.66
2023-01-29T20:26:17.385Z,101250.50
2023-01-29T20:28:48.831Z,101248.06
2023-01-29T20:31:19.096Z,101267.34
2023-01-29T20:33:48.871Z,101261.44
2023-01-29T20:36:18.576Z,101234.22
2023-01-29T20:38:50.949Z,101243.25
2023-01-29T20:41:21.955Z,101256.69
2023-01-29T20:43:51.775Z,101251.16
2023-01-29T20:46:21.617Z,101264.84
2023-01-29T20:48:53.289Z,101255.72
2023-01-29T20:51:23.514Z,101255.22
2023-01-29T20:53:55.925Z,101243.91
2023-01-29T20:56:39.061Z,101251.47
2023-01-29T20:59:14.109Z,101248.56
2023-01-29T21:01:44.705Z,101220.00
2023-01-29T21:04:14.395Z,101218.38
2023-01-29T21:06:44.078Z,101216.22
2023-01-29T21:09:16.283Z,101246.91
2023-01-29T21:11:47.322Z,101243.09
2023-01-29T21:14:17.078Z,101230.72
2023-01-29T21:16:46.924Z,101247.38
2023-01-29T21:19:17.401Z,101232.47
2023-01-29T21:21:47.045Z,101235.97
2023-01-29T21:24:19.395Z,101221.53
2023-01-29T21:26:49.240Z,101228.16
2023-01-29T21:29:18.924Z,101215.84
2023-01-29T21:31:48.698Z,101198.38
2023-01-29T21:34:18.516Z,101218.13
2023-01-29T21:36:48.161Z,101223.72
2023-01-29T21:39:21.088Z,101224.88
2023-01-29T21:42:05.109Z,101201.00
2023-01-29T21:44:35.388Z,101231.44
2023-01-29T21:47:12.389Z,101224.78
2023-01-29T21:49:44.054Z,101229.31
2023-01-29T21:52:15.552Z,101226.03
2023-01-29T21:54:49.236Z,101214.44
2023-01-29T21:57:19.894Z,101196.53
2023-01-29T21:59:50.467Z,101188.31
2023-01-29T22:02:23.934Z,101199.31
2023-01-29T22:05:08.782Z,101192.75
2023-01-29T22:07:47.041Z,101183.38
2023-01-29T22:10:20.849Z,101161.50
2023-01-29T22:12:51.154Z,101190.16
2023-01-29T22:15:23.471Z,101198.16
2023-01-29T22:17:53.599Z,101194.66
2023-01-29T22:20:29.741Z,101177.28
2023-01-29T22:23:01.677Z,101192.09
2023-01-29T22:25:34.448Z,101198.69
2023-01-29T22:28:04.137Z,101204.50
2023-01-29T22:30:33.896Z,101197.91
2023-01-29T22:33:03.566Z,101186.47
2023-01-29T22:35:33.584Z,101189.34
2023-01-29T22:38:03.232Z,101144.44
2023-01-29T22:40:35.501Z,101180.22
2023-01-29T22:43:05.106Z,101194.66
2023-01-29T22:45:35.093Z,101187.09
2023-01-29T22:48:06.077Z,101187.97
2023-01-29T22:50:36.885Z,101179.03
2023-01-29T22:53:07.122Z,101155.13
2023-01-29T22:55:39.343Z,101146.63
2023-01-29T22:58:09.357Z,101114.66
2023-01-29T23:00:38.969Z,101096.81
2023-01-29T23:03:08.630Z,101094.84
2023-01-29T23:05:38.272Z,101040.44
2023-01-29T23:08:08.463Z,101028.09
2023-01-29T23:10:40.779Z,101007.59
2023-01-29T23:13:10.551Z,100997.16
2023-01-29T23:15:40.912Z,100980.31
2023-01-29T23:18:10.715Z,100996.81
2023-01-29T23:20:40.321Z,100995.63
2023-01-29T23:23:09.969Z,100981.81
2023-01-29T23:25:54.639Z,101004.03
2023-01-29T23:28:24.295Z,101012.44
2023-01-29T23:30:54.148Z,100999.41
2023-01-29T23:33:23.905Z,101015.38
2023-01-29T23:35:53.522Z,101011.31
2023-01-29T23:38:23.193Z,100976.06
2023-01-29T23:40:57.980Z,100968.41
2023-01-29T23:43:27.702Z,100949.91
2023-01-29T23:45:57.710Z,100959.28
2023-01-29T23:48:27.508Z,100922.59
2023-01-29T23:50:57.179Z,100941.53
2023-01-29T23:53:27.965Z,100914.53
2023-01-29T23:56:04.954Z,100897.13
2023-01-29T23:58:35.413Z,100888.69
